Time;durP1;ratioP1;P1;durP2;ratioP2;P2;SDS_P1;SDS_P2;PMS_P1;PMS_P2;Temp;Humidity;BMP_temperature;BMP_pressure;BME280_temperature;BME280_humidity;BME280_pressure;Samples;Min_cycle;Max_cycle;Signal;HPM_P1;HPM_P2
2022/07/20 00:00:50;;;;;;;5.20;2.25;;;;;;;14.93;100.00;101140.61;1754789;81;20978;-41
2022/07/20 00:03:17;;;;;;;6.90;2.33;;;;;;;14.85;100.00;101142.58;1747657;81;21628;-41
2022/07/20 00:05:45;;;;;;;8.18;2.60;;;;;;;14.75;100.00;101131.95;1703203;83;22247;-41
2022/07/20 00:08:12;;;;;;;3.65;2.22;;;;;;;14.66;100.00;101128.66;1723488;81;22137;-41
2022/07/20 00:13:26;;;;;;;4.83;2.70;;;;;;;14.55;100.00;101138.50;1754833;81;21473;-40
2022/07/20 00:15:53;;;;;;;6.90;2.70;;;;;;;14.50;100.00;101131.22;1742688;81;20963;-40
2022/07/20 00:18:22;;;;;;;4.92;2.60;;;;;;;14.44;100.00;101130.08;1737521;82;21418;-40
2022/07/20 00:20:48;;;;;;;3.90;2.55;;;;;;;14.41;100.00;101130.16;1685247;84;21174;-40
2022/07/20 00:23:15;;;;;;;6.65;2.80;;;;;;;14.37;100.00;101128.92;1685278;84;20968;-40
2022/07/20 00:25:42;;;;;;;5.53;2.00;;;;;;;14.34;100.00;101126.83;1710345;82;21576;-40
2022/07/20 00:28:09;;;;;;;31.80;3.10;;;;;;;14.29;100.00;101126.95;1733740;82;20921;-39
2022/07/20 00:30:36;;;;;;;11.28;2.80;;;;;;;14.25;100.00;101127.05;1729613;81;20944;-40
2022/07/20 00:33:03;;;;;;;6.90;2.50;;;;;;;14.20;100.00;101130.62;1710471;83;21240;-40
2022/07/20 00:35:30;;;;;;;15.60;2.85;;;;;;;14.18;100.00;101125.03;1696291;83;21303;-40
2022/07/20 00:37:57;;;;;;;12.80;3.17;;;;;;;14.18;100.00;101126.33;1723786;82;20987;-40
2022/07/20 00:40:24;;;;;;;9.08;3.00;;;;;;;14.18;100.00;101125.03;1732449;81;21058;-40
2022/07/20 00:42:51;;;;;;;4.45;2.92;;;;;;;14.17;100.00;101126.80;1721800;82;20975;-40
2022/07/20 00:45:18;;;;;;;6.83;2.72;;;;;;;14.20;100.00;101128.45;1728874;83;21275;-40
2022/07/20 00:47:47;;;;;;;11.20;4.10;;;;;;;14.21;100.00;101128.86;1732138;82;20968;-40
2022/07/20 00:50:14;;;;;;;10.03;3.20;;;;;;;14.23;100.00;101128.37;1730512;82;20928;-39
2022/07/20 00:52:42;;;;;;;8.70;2.87;;;;;;;14.24;100.00;101131.39;1715227;82;21489;-40
2022/07/20 00:55:10;;;;;;;7.67;2.83;;;;;;;14.28;100.00;101124.38;1705780;84;20952;-40
2022/07/20 00:57:37;;;;;;;7.78;3.20;;;;;;;14.30;100.00;101124.77;1708533;83;21353;-40
2022/07/20 01:00:09;;;;;;;11.55;3.05;;;;;;;14.31;100.00;101121.70;1713973;83;20988;-40
2022/07/20 01:02:38;;;;;;;5.08;2.92;;;;;;;14.31;100.00;101121.27;1714004;83;20976;-40
2022/07/20 01:05:14;;;;;;;7.50;3.22;;;;;;;14.28;100.00;101120.04;1713741;82;20988;-40
2022/07/20 01:07:45;;;;;;;6.87;2.90;;;;;;;14.23;100.00;101120.14;1716740;82;21020;-40
2022/07/20 01:10:13;;;;;;;9.38;3.67;;;;;;;14.21;100.00;101118.45;1722890;82;21632;-40
2022/07/20 01:12:46;;;;;;;6.08;2.83;;;;;;;14.20;100.00;101118.91;1713893;82;20988;-40
2022/07/20 01:15:14;;;;;;;9.73;3.30;;;;;;;14.22;100.00;101115.83;1713861;83;21068;-40
2022/07/20 01:17:41;;;;;;;11.08;3.37;;;;;;;14.26;100.00;101115.28;1713849;82;20992;-40
2022/07/20 01:20:11;;;;;;;5.37;2.80;;;;;;;14.29;100.00;101119.14;1713864;82;21554;-40
2022/07/20 01:22:38;;;;;;;10.08;3.17;;;;;;;14.30;100.00;101119.98;1739888;82;21346;-40
2022/07/20 01:25:06;;;;;;;6.08;2.95;;;;;;;14.31;100.00;101119.09;1733473;82;20982;-40
2022/07/20 01:27:33;;;;;;;7.28;2.80;;;;;;;14.31;100.00;101122.56;1712300;83;21006;-40
2022/07/20 01:30:00;;;;;;;5.65;3.05;;;;;;;14.31;100.00;101121.27;1715358;82;21621;-40
2022/07/20 01:32:27;;;;;;;10.23;2.90;;;;;;;14.32;100.00;101115.59;1687393;85;21539;-40
2022/07/20 01:34:56;;;;;;;8.88;3.30;;;;;;;14.31;100.00;101112.16;1697601;82;20972;-40
2022/07/20 01:37:23;;;;;;;5.53;3.50;;;;;;;14.31;100.00;101112.16;1713796;82;21553;-40
2022/07/20 01:39:51;;;;;;;3.98;3.10;;;;;;;14.33;100.00;101116.00;1714072;83;20968;-40
2022/07/20 01:42:18;;;;;;;5.12;2.87;;;;;;;14.32;100.00;101111.69;1703813;83;21550;-40
2022/07/20 01:44:45;;;;;;;7.60;3.00;;;;;;;14.27;100.00;101113.09;1714064;82;20980;-40
2022/07/20 01:47:11;;;;;;;12.43;3.45;;;;;;;14.22;100.00;101109.74;1714009;83;21317;-40
2022/07/20 01:49:40;;;;;;;5.45;3.20;;;;;;;14.19;100.00;101111.99;1714030;82;20952;-40
2022/07/20 01:52:07;;;;;;;5.55;2.85;;;;;;;14.15;100.00;101106.88;1715238;82;21460;-41
2022/07/20 01:54:34;;;;;;;5.85;3.25;;;;;;;14.10;100.00;101106.14;1714029;83;20945;-41
2022/07/20 01:57:02;;;;;;;13.18;3.22;;;;;;;14.04;100.00;101104.52;1714112;83;21003;-41
2022/07/20 01:59:29;;;;;;;4.72;3.00;;;;;;;14.02;100.00;101105.00;1703714;83;22098;-41
2022/07/20 02:01:56;;;;;;;6.95;3.12;;;;;;;14.00;100.00;101106.33;1714043;82;21031;-41
2022/07/20 02:04:23;;;;;;;5.58;3.45;;;;;;;13.99;100.00;101104.61;1714030;83;21027;-41
2022/07/20 02:06:50;;;;;;;9.15;3.25;;;;;;;13.99;100.00;101107.22;1719382;82;21578;-41
2022/07/20 02:09:18;;;;;;;4.20;2.92;;;;;;;14.02;100.00;101109.78;1733737;82;21554;-41
2022/07/20 02:11:45;;;;;;;5.67;3.25;;;;;;;14.00;100.00;101102.42;1733826;82;21330;-41
2022/07/20 02:14:12;;;;;;;6.47;3.40;;;;;;;13.97;100.00;101102.49;1732059;82;21015;-41
2022/07/20 02:16:39;;;;;;;7.20;3.10;;;;;;;13.94;100.00;101094.33;1715192;82;21099;-41
2022/07/20 02:19:06;;;;;;;9.25;2.87;;;;;;;13.91;100.00;101096.12;1733818;82;21007;-41
2022/07/20 02:21:33;;;;;;;4.15;3.10;;;;;;;13.87;100.00;101103.60;1734025;82;21525;-41
2022/07/20 02:24:01;;;;;;;6.47;3.00;;;;;;;13.81;100.00;101106.34;1733907;82;21848;-41
2022/07/20 02:26:29;;;;;;;3.67;2.70;;;;;;;13.75;100.00;101106.86;1734020;82;21001;-41
2022/07/20 02:28:57;;;;;;;9.08;3.75;;;;;;;13.71;100.00;101109.58;1733654;81;20979;-41
2022/07/20 02:31:24;;;;;;;5.28;3.20;;;;;;;13.69;100.00;101117.41;1733831;82;21015;-41
2022/07/20 02:33:51;;;;;;;8.70;3.50;;;;;;;13.70;100.00;101112.61;1734031;82;21019;-41
2022/07/20 02:36:18;;;;;;;5.40;3.20;;;;;;;13.70;100.00;101110.02;1732576;82;21561;-41
2022/07/20 02:38:45;;;;;;;7.62;3.52;;;;;;;13.70;100.00;101107.87;1733752;82;21027;-41
2022/07/20 02:41:12;;;;;;;9.30;3.55;;;;;;;13.71;100.00;101113.02;1733911;82;21007;-41
2022/07/20 02:43:39;;;;;;;7.15;3.42;;;;;;;13.74;100.00;101111.66;1733884;82;20972;-41
2022/07/20 02:46:05;;;;;;;6.20;3.77;;;;;;;13.82;100.00;101117.16;1728528;82;21051;-41
2022/07/20 02:48:33;;;;;;;16.40;3.22;;;;;;;13.88;100.00;101113.12;1713968;82;21184;-41
2022/07/20 02:51:00;;;;;;;5.95;2.98;;;;;;;13.98;100.00;101115.08;1713681;82;21027;-41
2022/07/20 02:53:29;;;;;;;4.83;3.27;;;;;;;14.07;100.00;101110.95;1733859;82;20976;-41
2022/07/20 02:55:56;;;;;;;12.18;3.42;;;;;;;14.18;100.00;101114.62;1733926;82;20944;-41
2022/07/20 02:58:23;;;;;;;5.25;2.95;;;;;;;14.32;100.00;101118.20;1722340;82;20984;-41
2022/07/20 03:00:50;;;;;;;5.05;3.10;;;;;;;14.46;100.00;101123.08;1713927;82;21184;-41
2022/07/20 03:03:17;;;;;;;4.20;3.22;;;;;;;14.59;100.00;101120.59;1714004;82;20905;-41
2022/07/20 03:05:44;;;;;;;10.32;3.30;;;;;;;14.75;100.00;101121.53;1713921;83;21031;-41
2022/07/20 03:08:12;;;;;;;6.33;3.55;;;;;;;14.91;100.00;101120.72;1713946;83;21026;-41
2022/07/20 03:10:39;;;;;;;11.97;3.10;;;;;;;15.05;100.00;101123.80;1714005;82;20944;-41
2022/07/20 03:13:08;;;;;;;9.60;3.52;;;;;;;15.20;100.00;101126.91;1714027;82;21082;-41
2022/07/20 03:15:34;;;;;;;8.25;3.33;;;;;;;15.32;100.00;101126.55;1713768;82;21534;-41
2022/07/20 03:18:01;;;;;;;8.53;2.98;;;;;;;15.45;100.00;101125.77;1713917;82;20937;-41
2022/07/20 03:20:34;;;;;;;10.10;3.37;;;;;;;15.57;100.00;101119.34;1724689;82;20996;-41
2022/07/20 03:23:02;;;;;;;10.65;3.10;;;;;;;15.69;100.00;101124.66;1733962;82;20948;-41
2022/07/20 03:25:29;;;;;;;10.48;3.37;;;;;;;15.80;100.00;101121.73;1733934;82;21082;-41
2022/07/20 03:27:57;;;;;;;3.27;2.98;;;;;;;15.86;100.00;101118.92;1733777;82;21228;-41
2022/07/20 03:30:25;;;;;;;13.78;3.20;;;;;;;15.91;100.00;101123.62;1733663;81;21553;-42
2022/07/20 03:32:52;;;;;;;9.53;3.50;;;;;;;15.97;100.00;101115.19;1733817;82;21020;-41
2022/07/20 03:35:22;;;;;;;6.97;3.08;;;;;;;16.02;100.00;101111.98;1733773;82;20969;-41
2022/07/20 03:37:49;;;;;;;10.48;3.67;;;;;;;16.08;100.00;101111.78;1736469;82;21504;-41
2022/07/20 03:40:16;;;;;;;5.25;3.22;;;;;;;16.17;100.00;101110.64;1718569;83;20999;-41
2022/07/20 03:42:43;;;;;;;6.58;3.47;;;;;;;16.23;100.00;101106.52;1731396;82;20960;-41
2022/07/20 03:45:10;;;;;;;10.85;3.60;;;;;;;16.30;100.00;101111.98;1717044;82;21020;-41
2022/07/20 03:47:37;;;;;;;7.67;2.85;;;;;;;16.38;100.00;101104.73;1679302;85;21537;-41
2022/07/20 03:50:06;;;;;;;12.73;3.45;;;;;;;16.49;100.00;101103.52;1658605;85;21143;-41
2022/07/20 03:52:33;;;;;;;11.57;3.75;;;;;;;16.60;100.00;101105.78;1679544;83;20975;-42
2022/07/20 03:55:00;;;;;;;12.60;3.58;;;;;;;16.73;100.00;101107.52;1678521;83;20921;-41
2022/07/20 03:57:27;;;;;;;9.68;3.72;;;;;;;16.85;100.00;101109.73;1696516;83;21024;-41
2022/07/20 03:59:54;;;;;;;5.33;3.75;;;;;;;17.05;100.00;101101.66;1666888;85;21024;-41
2022/07/20 04:02:21;;;;;;;6.33;3.42;;;;;;;17.33;100.00;101108.07;1667021;86;21231;-41
2022/07/20 04:04:47;;;;;;;7.47;3.70;;;;;;;17.64;100.00;101107.39;1668439;85;21029;-41
2022/07/20 04:07:14;;;;;;;7.92;3.08;;;;;;;17.98;100.00;101103.47;1669137;86;20966;-42
2022/07/20 04:09:46;;;;;;;5.55;2.90;;;;;;;18.27;100.00;101104.09;1669118;86;21019;-41
2022/07/20 04:12:17;;;;;;;5.22;3.87;;;;;;;18.57;100.00;101106.40;1665971;85;21562;-41
2022/07/20 04:14:44;;;;;;;5.42;3.12;;;;;;;18.83;100.00;101110.99;1671795;85;21086;-41
2022/07/20 04:17:11;;;;;;;7.42;3.12;;;;;;;19.05;100.00;101103.52;1668990;85;21031;-42
2022/07/20 04:19:40;;;;;;;5.22;3.37;;;;;;;19.31;100.00;101102.37;1668175;85;20977;-41
2022/07/20 04:22:07;;;;;;;7.15;3.10;;;;;;;19.59;100.00;101106.36;1669582;85;21679;-42
2022/07/20 04:24:35;;;;;;;14.78;3.72;;;;;;;19.81;99.27;101111.45;1679190;85;21010;-42
2022/07/20 04:27:02;;;;;;;9.85;3.50;;;;;;;19.97;95.77;101105.99;1722252;81;22096;-42
2022/07/20 04:29:28;;;;;;;4.28;2.87;;;;;;;20.03;94.20;101107.00;1754529;80;21023;-41
2022/07/20 04:31:55;;;;;;;5.85;2.92;;;;;;;20.09;94.36;101098.81;1750425;81;21528;-42
2022/07/20 04:34:23;;;;;;;5.47;3.22;;;;;;;20.20;94.43;101104.87;1739113;82;20893;-42
2022/07/20 04:36:50;;;;;;;8.85;3.12;;;;;;;20.31;92.60;101105.66;1739111;82;21450;-41
2022/07/20 04:39:17;;;;;;;3.12;2.90;;;;;;;20.35;92.05;101100.63;1734677;81;22009;-42
2022/07/20 04:41:44;;;;;;;7.78;3.10;;;;;;;20.49;92.04;101107.83;1733926;82;20958;-42
2022/07/20 04:44:12;;;;;;;7.22;2.80;;;;;;;20.68;91.90;101098.09;1733894;82;20940;-41
2022/07/20 04:46:39;;;;;;;5.40;3.25;;;;;;;20.91;90.86;101093.46;1731099;82;21070;-42
2022/07/20 04:49:07;;;;;;;5.87;3.15;;;;;;;21.02;88.11;101093.35;1749652;81;20900;-42
2022/07/20 04:51:35;;;;;;;3.92;2.95;;;;;;;21.19;88.26;101088.50;1727251;81;21996;-42
2022/07/20 04:54:03;;;;;;;10.72;3.27;;;;;;;21.27;87.19;101090.73;1754378;80;20943;-42
2022/07/20 04:56:30;;;;;;;6.85;3.58;;;;;;;21.33;86.75;101090.39;1754161;81;20939;-41
2022/07/20 04:58:56;;;;;;;17.70;4.50;;;;;;;21.51;87.14;101088.57;1738954;81;21010;-42
2022/07/20 05:01:24;;;;;;;13.70;4.22;;;;;;;21.74;85.27;101084.69;1734190;82;21082;-42
2022/07/20 05:03:51;;;;;;;11.75;4.90;;;;;;;21.89;84.72;101082.14;1734048;82;21162;-42
2022/07/20 05:06:18;;;;;;;5.42;3.77;;;;;;;22.03;84.12;101079.55;1707129;82;22232;-42
2022/07/20 05:08:46;;;;;;;4.55;4.10;;;;;;;22.20;83.28;101078.58;1740041;81;21028;-42
2022/07/20 05:11:13;;;;;;;6.35;3.83;;;;;;;22.28;82.33;101079.45;1738989;82;21039;-42
2022/07/20 05:13:40;;;;;;;5.17;3.45;;;;;;;22.20;81.12;101074.63;1739076;82;20979;-42
2022/07/20 05:16:08;;;;;;;10.72;3.87;;;;;;;22.12;82.13;101078.67;1738836;82;21877;-42
2022/07/20 05:18:34;;;;;;;8.43;3.77;;;;;;;22.20;82.03;101078.58;1738747;81;20950;-41
2022/07/20 05:21:01;;;;;;;8.38;3.62;;;;;;;22.28;82.01;101075.98;1731586;82;21035;-42
2022/07/20 05:23:30;;;;;;;8.10;3.30;;;;;;;22.42;81.08;101072.55;1719387;82;20979;-42
2022/07/20 05:25:57;;;;;;;3.40;3.15;;;;;;;22.48;80.31;101073.52;1719355;83;20920;-42
2022/07/20 05:28:24;;;;;;;7.87;3.22;;;;;;;22.45;78.64;101077.63;1733018;82;21242;-42
2022/07/20 05:30:51;;;;;;;7.70;3.27;;;;;;;22.37;78.65;101083.35;1749603;80;20931;-42
2022/07/20 05:35:41;;;;;;;6.22;2.95;;;;;;;22.25;79.04;101078.32;1799535;79;22501;-41
2022/07/20 05:38:09;;;;;;;5.58;3.83;;;;;;;22.23;80.23;101081.52;1768576;80;20967;-42
2022/07/20 05:40:38;;;;;;;16.30;4.25;;;;;;;22.29;79.29;101076.37;1757309;81;21011;-41
2022/07/20 05:43:05;;;;;;;14.00;3.22;;;;;;;22.30;79.82;101077.58;1757259;81;21450;-41
2022/07/20 05:45:32;;;;;;;16.30;3.42;;;;;;;22.46;80.36;101074.06;1757230;80;21000;-41
2022/07/20 05:47:59;;;;;;;6.10;2.72;;;;;;;22.53;79.15;101071.45;1766103;80;20896;-41
2022/07/20 05:50:26;;;;;;;3.80;2.67;;;;;;;22.55;78.66;101068.74;1791658;80;20924;-41
2022/07/20 05:52:53;;;;;;;5.00;2.87;;;;;;;22.63;78.41;101065.17;1791491;80;21227;-41
2022/07/20 05:55:21;;;;;;;12.95;3.60;;;;;;;22.67;77.66;101064.91;1780388;80;20964;-41
2022/07/20 05:57:49;;;;;;;7.65;3.55;;;;;;;22.76;77.40;101056.91;1773018;80;20915;-41
2022/07/20 06:00:17;;;;;;;6.65;3.12;;;;;;;22.92;76.78;101051.53;1791267;80;20962;-41
2022/07/20 06:02:44;;;;;;;9.83;3.35;;;;;;;23.10;77.24;101056.60;1761540;80;20926;-42
2022/07/20 06:05:11;;;;;;;4.58;4.17;;;;;;;23.24;76.47;101053.96;1791584;80;21121;-41
2022/07/20 06:07:38;;;;;;;7.95;3.70;;;;;;;23.28;75.13;101052.48;1779481;80;21039;-41
2022/07/20 06:10:07;;;;;;;5.12;3.33;;;;;;;23.36;74.51;101056.34;1757337;81;21041;-41
2022/07/20 06:12:35;;;;;;;7.60;3.30;;;;;;;23.32;74.85;101053.52;1757147;81;21581;-41
2022/07/20 06:15:04;;;;;;;5.55;3.42;;;;;;;23.35;74.41;101044.53;1767714;80;20960;-42
2022/07/20 06:17:37;;;;;;;6.15;3.75;;;;;;;23.34;75.68;101045.48;1781544;80;21255;-42
2022/07/20 06:20:13;;;;;;;7.95;3.85;;;;;;;23.38;75.58;101049.16;1757204;81;21015;-41
2022/07/20 06:22:43;;;;;;;18.55;5.28;;;;;;;23.57;75.81;101043.17;1757185;81;20980;-41
2022/07/20 06:25:12;;;;;;;5.75;3.72;;;;;;;23.66;73.02;101050.52;1757292;81;21007;-41
2022/07/20 06:27:40;;;;;;;7.72;3.35;;;;;;;23.59;71.21;101045.23;1768975;80;21292;-42
2022/07/20 06:30:08;;;;;;;4.33;4.03;;;;;;;23.60;73.33;101045.16;1770077;80;21120;-41
2022/07/20 06:32:35;;;;;;;5.25;4.03;;;;;;;23.77;73.07;101041.91;1760054;81;21006;-41
2022/07/20 06:35:04;;;;;;;5.17;3.98;;;;;;;23.81;71.02;101036.30;1751955;81;20935;-42
2022/07/20 06:37:31;;;;;;;4.90;4.33;;;;;;;23.83;71.54;101036.20;1704937;83;21013;-42
2022/07/20 06:39:58;;;;;;;4.20;3.80;;;;;;;23.83;70.62;101036.20;1722087;83;20923;-42
2022/07/20 06:42:25;;;;;;;8.85;3.83;;;;;;;23.73;70.13;101028.48;1722226;83;21240;-41
2022/07/20 06:44:52;;;;;;;3.50;3.30;;;;;;;23.72;72.03;101028.11;1722271;83;21757;-41
2022/07/20 06:47:21;;;;;;;3.65;3.35;;;;;;;23.65;71.31;101031.16;1737273;82;20893;-41
2022/07/20 06:49:49;;;;;;;3.50;3.20;;;;;;;23.53;72.21;101024.88;1720461;81;21458;-41
2022/07/20 06:52:15;;;;;;;3.42;2.95;;;;;;;23.71;70.59;101018.50;1718402;82;20931;-41
2022/07/20 06:54:43;;;;;;;3.65;2.90;;;;;;;23.76;69.53;101022.54;1738432;82;22431;-41
2022/07/20 06:57:10;;;;;;;6.42;2.67;;;;;;;23.72;70.82;101025.47;1729689;82;21010;-41
2022/07/20 06:59:37;;;;;;;5.55;2.77;;;;;;;23.74;71.67;101016.97;1728337;82;20942;-41
2022/07/20 07:02:05;;;;;;;3.27;2.95;;;;;;;23.60;69.61;101019.19;1720578;82;20975;-41
2022/07/20 07:04:32;;;;;;;3.52;2.45;;;;;;;23.29;71.34;101023.80;1748590;82;20992;-41
2022/07/20 07:07:01;;;;;;;3.10;2.90;;;;;;;23.08;73.56;101018.89;1748785;82;22017;-41
2022/07/20 07:09:29;;;;;;;3.22;2.72;;;;;;;23.17;75.74;101025.39;1732668;82;20985;-42
2022/07/20 07:11:56;;;;;;;7.62;2.52;;;;;;;23.45;74.16;101013.97;1714493;82;21042;-41
2022/07/20 07:14:23;;;;;;;2.40;2.20;;;;;;;23.68;70.45;101007.67;1730460;82;21023;-41
2022/07/20 07:16:50;;;;;;;2.47;2.25;;;;;;;23.83;69.33;101014.57;1738274;82;21512;-41
2022/07/20 07:19:19;;;;;;;4.75;2.15;;;;;;;23.73;68.40;101009.99;1728567;82;21040;-42
2022/07/20 07:21:45;;;;;;;3.72;2.20;;;;;;;23.89;68.00;101019.94;1744255;82;20971;-42
2022/07/20 07:24:13;;;;;;;2.70;1.90;;;;;;;23.87;67.25;101007.76;1743639;82;21277;-41
2022/07/20 07:26:40;;;;;;;11.08;2.10;;;;;;;23.92;67.53;101001.23;1702354;83;20990;-41
2022/07/20 07:29:08;;;;;;;8.30;2.22;;;;;;;24.11;67.82;100999.55;1721894;82;20962;-41
2022/07/20 07:31:35;;;;;;;4.97;2.50;;;;;;;24.21;66.98;100997.62;1738614;82;21217;-42
2022/07/20 07:34:02;;;;;;;5.10;1.70;;;;;;;24.31;65.54;100998.67;1748829;81;20994;-41
2022/07/20 07:36:29;;;;;;;2.15;1.90;;;;;;;24.28;64.44;100996.73;1739242;82;21052;-42
2022/07/20 07:38:56;;;;;;;2.02;1.85;;;;;;;24.20;65.09;100992.80;1734989;81;21015;-41
2022/07/20 07:41:24;;;;;;;2.58;2.30;;;;;;;24.25;66.49;100994.67;1716143;82;20979;-41
2022/07/20 07:43:51;;;;;;;2.40;2.20;;;;;;;24.33;64.50;100993.30;1742824;82;21074;-41
2022/07/20 07:46:19;;;;;;;2.72;1.95;;;;;;;24.39;64.90;100980.97;1729382;82;21572;-43
2022/07/20 07:48:46;;;;;;;2.15;2.00;;;;;;;24.53;63.88;100989.27;1742701;82;21568;-41
2022/07/20 07:51:13;;;;;;;5.70;2.05;;;;;;;24.37;64.79;100981.05;1732450;82;21313;-41
2022/07/20 07:53:40;;;;;;;3.58;1.87;;;;;;;24.47;63.80;100985.73;1744477;82;21433;-41
2022/07/20 07:56:08;;;;;;;5.33;2.00;;;;;;;24.60;63.75;100979.11;1736410;82;21236;-41
2022/07/20 07:58:35;;;;;;;5.97;1.75;;;;;;;24.62;62.58;100975.39;1733130;82;20959;-42
2022/07/20 08:01:02;;;;;;;4.30;2.12;;;;;;;24.60;62.23;100979.11;1743186;82;21018;-41
2022/07/20 08:03:30;;;;;;;2.17;1.77;;;;;;;24.65;63.85;100974.34;1748122;82;20947;-41
2022/07/20 08:05:57;;;;;;;1.82;1.65;;;;;;;24.62;61.64;100967.45;1738843;82;20928;-41
2022/07/20 08:08:24;;;;;;;2.00;1.90;;;;;;;24.57;62.36;100960.81;1744241;82;21043;-41
2022/07/20 08:10:51;;;;;;;5.62;1.80;;;;;;;24.58;62.47;100959.86;1718837;82;21016;-41
2022/07/20 08:13:20;;;;;;;3.52;1.55;;;;;;;24.70;64.60;100957.66;1705339;82;21025;-41
2022/07/20 08:15:47;;;;;;;6.00;1.72;;;;;;;25.03;62.38;100960.69;1703321;83;20950;-41
2022/07/20 08:18:15;;;;;;;3.40;1.70;;;;;;;25.32;61.37;100951.10;1713894;82;21072;-41
2022/07/20 08:20:42;;;;;;;3.45;1.75;;;;;;;25.33;60.03;100943.52;1713694;82;21079;-42
2022/07/20 08:23:09;;;;;;;1.95;1.67;;;;;;;25.23;60.81;100938.91;1688644;82;20975;-42
2022/07/20 08:25:36;;;;;;;2.05;1.95;;;;;;;25.19;62.34;100938.77;1714120;82;20893;-42
2022/07/20 08:28:16;;;;;;;2.00;1.90;;;;;;;25.12;61.74;100932.21;1685281;85;20944;-42
2022/07/20 08:30:47;;;;;;;1.95;1.85;;;;;;;25.00;62.51;100934.44;1715334;82;21094;-42
2022/07/20 08:33:13;;;;;;;2.42;2.22;;;;;;;24.89;62.00;100933.42;1728522;82;21233;-42
2022/07/20 08:35:41;;;;;;;2.17;1.85;;;;;;;24.86;60.42;100930.14;1733858;82;20940;-43
2022/07/20 08:38:07;;;;;;;3.90;1.90;;;;;;;24.85;61.56;100923.16;1734246;82;20937;-42
2022/07/20 08:40:34;;;;;;;2.27;2.08;;;;;;;24.93;60.43;100926.09;1733945;82;20982;-42
2022/07/20 08:43:02;;;;;;;1.65;1.55;;;;;;;25.00;62.04;100925.17;1731916;82;20943;-42
2022/07/20 08:45:31;;;;;;;2.20;1.70;;;;;;;25.00;58.85;100927.82;1748811;82;21273;-41
2022/07/20 08:48:00;;;;;;;2.17;1.60;;;;;;;24.94;60.82;100922.02;1749554;82;20911;-42
2022/07/20 08:50:29;;;;;;;2.70;1.62;;;;;;;24.97;60.18;100915.64;1748313;82;21478;-42
2022/07/20 08:52:56;;;;;;;1.95;1.67;;;;;;;25.01;59.30;100911.84;1740837;82;21084;-41
2022/07/20 08:55:25;;;;;;;2.72;1.40;;;;;;;25.07;58.36;100910.06;1731878;82;20935;-41
2022/07/20 08:57:52;;;;;;;3.05;1.90;;;;;;;25.09;59.19;100902.84;1731969;82;21255;-41
2022/07/20 09:00:20;;;;;;;2.22;2.02;;;;;;;25.21;58.66;100901.10;1731951;82;20968;-42
2022/07/20 09:03:01;;;;;;;6.08;1.65;;;;;;;25.06;58.44;100892.95;1744385;82;21007;-42
2022/07/20 09:05:28;;;;;;;2.65;1.47;;;;;;;24.95;60.52;100894.59;1749482;81;21498;-41
2022/07/20 09:07:57;;;;;;;2.55;1.47;;;;;;;25.08;58.64;100887.92;1750000;82;20935;-42
2022/07/20 09:10:33;;;;;;;10.88;1.70;;;;;;;25.05;56.66;100880.20;1749631;82;21147;-42
2022/07/20 09:13:04;;;;;;;1.50;1.40;;;;;;;24.93;59.18;100880.63;1690502;83;20984;-43
2022/07/20 09:15:38;;;;;;;14.05;1.77;;;;;;;24.94;59.30;100875.69;1710606;82;20916;-41
2022/07/20 09:18:20;;;;;;;2.10;1.62;;;;;;;25.00;57.51;100873.55;1749654;81;21018;-41
2022/07/20 09:21:04;;;;;;;1.25;1.10;;;;;;;24.96;56.43;100872.45;1747261;82;21022;-41
2022/07/20 09:23:44;;;;;;;2.30;1.02;;;;;;;24.82;57.29;100869.95;1738332;82;21147;-41
2022/07/20 09:26:15;;;;;;;1.92;1.07;;;;;;;24.85;56.51;100870.22;1749385;81;20987;-41
2022/07/20 09:28:54;;;;;;;6.15;1.32;;;;;;;24.83;54.65;100863.70;1748887;80;20990;-41
2022/07/20 09:31:34;;;;;;;3.10;0.90;;;;;;;24.86;56.95;100861.31;1741377;81;21026;-41
2022/07/20 09:34:07;;;;;;;3.20;0.90;;;;;;;24.98;53.59;100855.61;1720262;82;20995;-41
2022/07/20 09:36:39;;;;;;;0.85;0.85;;;;;;;24.98;53.82;100855.61;1691916;83;21241;-41
2022/07/20 09:39:20;;;;;;;0.95;0.95;;;;;;;24.94;54.82;100852.33;1714519;83;20987;-43
2022/07/20 09:41:58;;;;;;;1.20;1.20;;;;;;;25.10;55.77;100852.04;1714305;83;22240;-43
2022/07/20 09:44:30;;;;;;;1.10;0.95;;;;;;;25.36;54.25;100838.19;1714379;83;20920;-43
2022/07/20 09:46:58;;;;;;;1.07;1.07;;;;;;;25.47;52.95;100837.88;1714258;83;21007;-41
2022/07/20 09:49:31;;;;;;;3.05;1.30;;;;;;;25.26;54.01;100833.20;1687810;83;21196;-41
2022/07/20 09:52:00;;;;;;;1.12;0.90;;;;;;;25.18;54.55;100830.30;1743850;81;20935;-41
2022/07/20 09:54:27;;;;;;;2.77;0.80;;;;;;;25.15;53.49;100827.41;1727500;81;21015;-41
2022/07/20 09:56:56;;;;;;;1.07;0.98;;;;;;;25.31;54.57;100812.53;1706385;82;21501;-42
2022/07/20 09:59:23;;;;;;;4.20;1.00;;;;;;;25.59;53.25;100812.25;1734062;82;20936;-42
2022/07/20 10:01:54;;;;;;;5.17;0.88;;;;;;;25.76;52.92;100812.27;1733998;82;21307;-42
2022/07/20 10:04:23;;;;;;;1.10;1.00;;;;;;;25.87;54.68;100813.63;1751003;81;20947;-42
2022/07/20 10:06:51;;;;;;;2.62;1.22;;;;;;;26.08;52.53;100812.91;1740720;81;20948;-43
2022/07/20 10:09:20;;;;;;;1.30;1.20;;;;;;;26.01;52.05;100799.29;1734128;82;20935;-43
2022/07/20 10:11:48;;;;;;;8.03;1.30;;;;;;;26.11;52.56;100811.34;1734050;82;20970;-42
2022/07/20 10:14:17;;;;;;;2.50;1.12;;;;;;;26.21;49.81;100802.20;1749620;81;21218;-42
2022/07/20 10:16:53;;;;;;;3.50;1.00;;;;;;;26.13;50.42;100794.82;1754431;81;21520;-43
2022/07/20 10:19:42;;;;;;;1.17;1.10;;;;;;;26.07;49.39;100804.09;1754455;81;20954;-42
2022/07/20 10:22:09;;;;;;;1.12;1.10;;;;;;;25.90;50.83;100796.65;1754562;81;21006;-42
2022/07/20 10:24:38;;;;;;;5.58;1.45;;;;;;;25.83;51.77;100783.85;1736606;81;20947;-43
2022/07/20 10:27:15;;;;;;;1.10;1.10;;;;;;;25.88;51.70;100779.98;1734261;82;20986;-42
2022/07/20 10:29:52;;;;;;;1.45;1.22;;;;;;;26.07;51.46;100781.56;1734340;81;20932;-43
2022/07/20 10:32:24;;;;;;;1.30;1.20;;;;;;;26.23;48.76;100771.09;1734240;82;20935;-43
2022/07/20 10:34:56;;;;;;;1.27;1.27;;;;;;;26.19;49.71;100770.98;1741039;81;21023;-43
2022/07/20 10:37:36;;;;;;;3.95;1.20;;;;;;;26.20;49.57;100764.22;1727867;82;20936;-42
2022/07/20 10:40:16;;;;;;;3.40;1.15;;;;;;;26.15;48.66;100750.45;1733795;82;21510;-43
2022/07/20 10:42:53;;;;;;;1.02;0.88;;;;;;;26.21;48.68;100747.33;1733711;82;21519;-43
2022/07/20 10:45:27;;;;;;;5.92;1.05;;;;;;;26.16;47.34;100742.89;1722895;82;20925;-43
2022/07/20 10:48:11;;;;;;;0.70;0.70;;;;;;;26.19;47.87;100743.14;1717779;82;21003;-43
2022/07/20 10:50:41;;;;;;;2.33;0.90;;;;;;;26.14;45.38;100738.16;1712367;83;20947;-43
2022/07/20 10:53:19;;;;;;;1.12;1.00;;;;;;;26.02;45.74;100734.69;1708170;82;21561;-43
2022/07/20 10:55:58;;;;;;;0.60;0.60;;;;;;;26.09;47.28;100733.72;1711848;82;20999;-43
2022/07/20 10:58:31;;;;;;;3.98;1.17;;;;;;;26.09;45.50;100724.44;1733601;82;21569;-43
2022/07/20 11:01:07;;;;;;;3.50;1.07;;;;;;;26.04;47.31;100722.64;1733974;82;20964;-43
2022/07/20 11:03:41;;;;;;;3.00;1.20;;;;;;;26.22;45.67;100717.69;1733805;82;20980;-43
2022/07/20 11:06:20;;;;;;;3.85;1.27;;;;;;;26.26;45.91;100717.80;1732433;82;21031;-44
2022/07/20 11:08:54;;;;;;;9.78;1.55;;;;;;;26.27;46.23;100708.02;1727106;82;21580;-43
2022/07/20 11:11:34;;;;;;;2.95;1.30;;;;;;;26.43;47.70;100707.63;1719162;82;21604;-43
2022/07/20 11:14:04;;;;;;;5.30;1.52;;;;;;;26.50;46.09;100708.30;1724381;82;20983;-43
2022/07/20 11:16:32;;;;;;;5.58;1.60;;;;;;;26.46;45.91;100702.06;1729886;82;21517;-43
2022/07/20 11:19:02;;;;;;;5.40;2.20;;;;;;;26.45;47.06;100696.41;1733872;82;21051;-43
2022/07/20 11:21:40;;;;;;;6.75;1.62;;;;;;;26.34;46.85;100690.66;1714461;82;21005;-43
2022/07/20 11:24:28;;;;;;;2.83;1.60;;;;;;;26.10;47.21;100691.64;1733983;82;20984;-43
2022/07/20 11:26:57;;;;;;;3.98;1.47;;;;;;;25.97;48.08;100688.64;1725669;82;21022;-43
2022/07/20 11:29:25;;;;;;;1.77;1.60;;;;;;;26.15;46.63;100682.83;1714051;82;21023;-42
2022/07/20 11:31:52;;;;;;;3.60;1.75;;;;;;;26.32;47.35;100673.52;1726987;82;21065;-42
2022/07/20 11:34:20;;;;;;;16.52;2.10;;;;;;;26.37;45.08;100677.95;1739316;82;20948;-42